createdAt,value
2018-03-06T00:02:22.986Z,1.60
2018-03-06T00:04:49.330Z,1.60
2018-03-06T00:07:17.603Z,1.60
2018-03-06T00:09:44.715Z,1.60
2018-03-06T00:12:11.047Z,1.60
2018-03-06T00:14:37.679Z,1.60
2018-03-06T00:17:04.029Z,1.60
2018-03-06T00:19:30.382Z,1.60
2018-03-06T00:21:57.714Z,1.60
2018-03-06T00:24:24.124Z,1.60
2018-03-06T00:26:50.495Z,1.50
2018-03-06T00:29:16.830Z,1.60
2018-03-06T00:31:43.673Z,1.60
2018-03-06T00:34:10.314Z,1.70
2018-03-06T00:36:37.158Z,1.70
2018-03-06T00:39:03.546Z,1.70
2018-03-06T00:41:29.882Z,1.70
2018-03-06T00:43:56.214Z,1.70
2018-03-06T00:46:23.457Z,1.70
2018-03-06T00:48:49.833Z,1.60
2018-03-06T00:51:16.915Z,1.70
2018-03-06T00:53:45.176Z,1.60
2018-03-06T00:56:11.514Z,1.60
2018-03-06T00:58:38.607Z,1.50
2018-03-06T01:01:04.969Z,1.50
2018-03-06T01:03:31.294Z,1.60
2018-03-06T01:05:58.682Z,1.60
2018-03-06T01:10:56.710Z,1.60
2018-03-06T01:13:26.567Z,1.60
2018-03-06T01:15:53.259Z,1.60
2018-03-06T01:18:19.608Z,1.60
2018-03-06T01:20:45.980Z,1.50
2018-03-06T01:23:12.290Z,1.40
2018-03-06T01:25:38.641Z,1.50
2018-03-06T01:28:04.968Z,1.40
2018-03-06T01:30:33.254Z,1.30
2018-03-06T01:32:59.595Z,1.30
2018-03-06T01:35:27.126Z,1.20
2018-03-06T01:37:57.147Z,1.20
2018-03-06T01:40:25.998Z,1.20
2018-03-06T01:42:54.006Z,1.20
2018-03-06T01:45:20.337Z,1.20
2018-03-06T01:47:48.075Z,1.30
2018-03-06T01:50:14.410Z,1.20
2018-03-06T01:52:41.807Z,1.20
2018-03-06T01:55:08.178Z,1.20
2018-03-06T01:57:35.879Z,1.20
2018-03-06T02:00:02.360Z,1.20
2018-03-06T02:02:30.190Z,1.20
2018-03-06T02:04:56.823Z,1.20
2018-03-06T02:07:24.642Z,1.30
2018-03-06T02:09:51.022Z,1.30
2018-03-06T02:12:17.862Z,1.30
2018-03-06T02:14:44.295Z,1.30
2018-03-06T02:17:11.526Z,1.40
2018-03-06T02:19:37.894Z,1.30
2018-03-06T02:22:04.235Z,1.20
2018-03-06T02:24:32.326Z,1.30
2018-03-06T02:27:00.308Z,1.40
2018-03-06T02:29:30.379Z,1.30
2018-03-06T02:31:57.474Z,1.40
2018-03-06T02:34:23.801Z,1.30
2018-03-06T02:36:50.142Z,1.40
2018-03-06T02:39:17.137Z,1.40
2018-03-06T02:41:44.438Z,1.50
2018-03-06T02:44:10.785Z,1.40
2018-03-06T02:46:37.129Z,1.50
2018-03-06T02:49:03.475Z,1.40
2018-03-06T02:51:29.804Z,1.30
2018-03-06T02:53:57.149Z,1.30
2018-03-06T02:56:25.317Z,1.30
2018-03-06T02:58:53.070Z,1.30
2018-03-06T03:03:51.188Z,1.30
2018-03-06T03:06:19.302Z,1.30
2018-03-06T03:08:46.898Z,1.40
2018-03-06T03:13:44.886Z,1.30
2018-03-06T03:16:11.234Z,1.30
2018-03-06T03:18:37.563Z,1.30
2018-03-06T03:21:05.389Z,1.30
2018-03-06T03:23:33.302Z,1.30
2018-03-06T03:26:01.423Z,1.40
2018-03-06T03:28:28.809Z,1.40
2018-03-06T03:30:56.157Z,1.40
2018-03-06T03:33:23.525Z,1.30
2018-03-06T03:35:49.863Z,1.30
2018-03-06T03:38:16.206Z,1.30
2018-03-06T03:40:42.546Z,1.30
2018-03-06T03:43:09.636Z,1.30
2018-03-06T03:48:09.678Z,1.30
2018-03-06T03:50:37.034Z,1.30
2018-03-06T03:53:03.362Z,1.30
2018-03-06T03:55:30.703Z,1.40
2018-03-06T03:57:57.042Z,1.50
2018-03-06T04:00:23.376Z,1.50
2018-03-06T04:02:49.696Z,1.50
2018-03-06T04:05:16.028Z,1.50
2018-03-06T04:07:42.367Z,1.50
2018-03-06T04:10:08.699Z,1.50
2018-03-06T04:12:35.091Z,1.50
2018-03-06T04:15:02.199Z,1.40
2018-03-06T04:17:28.539Z,1.40
2018-03-06T04:19:54.879Z,1.30
2018-03-06T04:22:21.221Z,1.40
2018-03-06T04:24:47.578Z,1.40
2018-03-06T04:27:14.651Z,1.40
2018-03-06T04:29:46.032Z,1.40
2018-03-06T04:32:12.362Z,1.40
2018-03-06T04:34:38.700Z,1.40
2018-03-06T04:37:05.028Z,1.30
2018-03-06T04:39:31.359Z,1.30
2018-03-06T04:41:57.690Z,1.20
2018-03-06T04:44:24.019Z,1.20
2018-03-06T04:46:50.361Z,1.20
2018-03-06T04:49:16.699Z,1.20
2018-03-06T04:51:43.078Z,1.30
2018-03-06T04:54:09.422Z,1.30
2018-03-06T04:56:35.785Z,1.20
2018-03-06T04:59:03.104Z,1.20
2018-03-06T05:01:29.478Z,1.20
2018-03-06T05:03:55.809Z,1.30
2018-03-06T05:06:22.142Z,1.30
2018-03-06T05:08:48.490Z,1.40
2018-03-06T05:11:15.583Z,1.40
2018-03-06T05:13:42.151Z,1.40
2018-03-06T05:16:08.723Z,1.40
2018-03-06T05:18:35.067Z,1.40
2018-03-06T05:21:01.410Z,1.40
2018-03-06T05:23:27.722Z,1.30
2018-03-06T05:25:54.103Z,1.40
2018-03-06T05:28:20.450Z,1.40
2018-03-06T05:30:46.776Z,1.50
2018-03-06T05:33:13.114Z,1.50
2018-03-06T05:35:40.457Z,1.60
2018-03-06T05:38:08.270Z,1.60
2018-03-06T05:40:34.598Z,1.60
2018-03-06T05:43:00.946Z,1.50
2018-03-06T05:45:27.289Z,1.50
2018-03-06T05:47:53.627Z,1.50
2018-03-06T05:50:19.964Z,1.50
2018-03-06T05:52:46.759Z,1.60
2018-03-06T05:55:13.976Z,1.70
2018-03-06T05:57:41.086Z,1.60
2018-03-06T06:00:07.418Z,1.50
2018-03-06T06:02:33.749Z,1.50
2018-03-06T06:05:00.074Z,1.50
2018-03-06T06:07:26.439Z,1.50
2018-03-06T06:09:52.767Z,1.50
2018-03-06T06:12:19.135Z,1.50
2018-03-06T06:14:45.446Z,1.50
2018-03-06T06:17:11.771Z,1.60
2018-03-06T06:19:40.869Z,1.70
2018-03-06T06:22:07.186Z,1.80
2018-03-06T06:24:33.530Z,1.80
2018-03-06T06:26:59.826Z,1.70
2018-03-06T06:29:27.902Z,1.80
2018-03-06T06:31:54.954Z,1.80
2018-03-06T06:34:21.258Z,1.80
2018-03-06T06:36:47.567Z,1.70
2018-03-06T06:39:13.896Z,1.70
2018-03-06T06:41:40.199Z,1.70
2018-03-06T06:44:06.513Z,1.70
2018-03-06T06:46:32.823Z,1.90
2018-03-06T06:48:59.874Z,2.00
2018-03-06T06:51:27.252Z,2.00
2018-03-06T06:53:53.619Z,1.90
2018-03-06T06:56:19.938Z,2.10
2018-03-06T06:58:46.246Z,2.20
2018-03-06T07:01:12.555Z,2.30
2018-03-06T07:03:39.610Z,2.30
2018-03-06T07:06:05.914Z,2.30
2018-03-06T07:08:32.218Z,2.40
2018-03-06T07:10:58.526Z,2.50
2018-03-06T07:13:24.835Z,2.50
2018-03-06T07:15:51.161Z,2.60
2018-03-06T07:18:17.503Z,2.60
2018-03-06T07:20:43.824Z,2.80
2018-03-06T07:23:10.130Z,2.80
2018-03-06T07:25:37.178Z,3.10
2018-03-06T07:28:04.238Z,2.90
2018-03-06T07:30:31.318Z,2.80
2018-03-06T07:32:57.634Z,2.80
2018-03-06T07:35:24.026Z,2.80
2018-03-06T07:37:51.078Z,3.00
2018-03-06T07:40:17.381Z,3.00
2018-03-06T07:42:43.760Z,3.10
2018-03-06T07:45:10.813Z,3.10
2018-03-06T07:47:38.917Z,3.20
2018-03-06T07:50:05.246Z,3.20
2018-03-06T07:52:31.554Z,3.40
2018-03-06T07:54:57.868Z,3.60
2018-03-06T07:57:24.952Z,3.80
2018-03-06T07:59:51.284Z,3.80
2018-03-06T08:02:18.635Z,3.90
2018-03-06T08:04:45.940Z,4.00
2018-03-06T08:07:13.010Z,4.10
2018-03-06T08:12:20.494Z,4.10
2018-03-06T08:15:09.686Z,4.10
2018-03-06T08:17:35.994Z,4.00
2018-03-06T08:20:02.338Z,3.90
2018-03-06T08:22:28.666Z,3.90
2018-03-06T08:24:54.971Z,3.90
2018-03-06T08:27:21.327Z,4.00
2018-03-06T08:29:47.636Z,4.10
2018-03-06T08:32:13.949Z,4.00
2018-03-06T08:34:40.314Z,4.10
2018-03-06T08:37:06.622Z,4.10
2018-03-06T08:39:32.944Z,4.20
2018-03-06T08:41:59.246Z,4.00
2018-03-06T08:44:26.294Z,3.70
2018-03-06T08:46:53.352Z,3.60
2018-03-06T08:49:19.659Z,3.60
2018-03-06T08:51:46.715Z,3.50
2018-03-06T08:54:13.771Z,3.60
2018-03-06T08:56:40.075Z,3.60
2018-03-06T08:59:06.382Z,3.80
2018-03-06T09:01:32.698Z,4.00
2018-03-06T09:03:59.061Z,4.10
2018-03-06T09:06:25.366Z,4.30
2018-03-06T09:08:52.446Z,4.20
2018-03-06T09:11:18.750Z,4.20
2018-03-06T09:13:45.061Z,4.20
2018-03-06T09:16:11.417Z,4.20
2018-03-06T09:18:37.846Z,4.10
2018-03-06T09:21:04.166Z,4.20
2018-03-06T09:23:30.465Z,4.20
2018-03-06T09:25:56.765Z,4.20
2018-03-06T09:28:23.831Z,4.20
2018-03-06T09:30:50.939Z,4.20
2018-03-06T09:33:18.231Z,4.20
2018-03-06T09:35:45.303Z,4.60
2018-03-06T09:38:11.606Z,4.60
2018-03-06T09:40:39.654Z,5.00
2018-03-06T09:43:05.979Z,5.00
2018-03-06T09:45:32.282Z,5.20
2018-03-06T09:47:58.609Z,5.30
2018-03-06T09:50:24.943Z,5.30
2018-03-06T09:52:51.245Z,5.40
2018-03-06T09:55:17.574Z,5.50
2018-03-06T09:57:43.894Z,5.30
2018-03-06T10:00:11.972Z,5.50
2018-03-06T10:02:38.326Z,5.40
2018-03-06T10:05:05.690Z,5.30
2018-03-06T10:07:32.004Z,5.30
2018-03-06T10:09:58.311Z,5.40
2018-03-06T10:12:26.418Z,5.70
2018-03-06T10:14:53.810Z,5.70
2018-03-06T10:17:20.926Z,5.70
2018-03-06T10:19:47.226Z,5.70
2018-03-06T10:22:13.535Z,5.80
2018-03-06T10:24:40.590Z,6.00
2018-03-06T10:27:07.659Z,5.70
2018-03-06T10:29:33.974Z,5.70
2018-03-06T10:32:01.027Z,6.00
2018-03-06T10:34:27.338Z,6.00
2018-03-06T10:36:54.439Z,6.30
2018-03-06T10:39:20.770Z,6.30
2018-03-06T10:41:47.086Z,6.40
2018-03-06T10:44:13.391Z,6.40
2018-03-06T10:46:40.439Z,6.30
2018-03-06T10:49:07.487Z,6.40
2018-03-06T10:51:34.570Z,6.40
2018-03-06T10:54:00.875Z,6.40
2018-03-06T10:56:27.190Z,6.20
2018-03-06T10:58:54.242Z,6.10
2018-03-06T11:01:24.261Z,6.10
2018-03-06T11:03:51.338Z,6.10
2018-03-06T11:06:17.718Z,6.10
2018-03-06T11:08:44.026Z,6.20
2018-03-06T11:11:10.338Z,6.20
2018-03-06T11:13:36.664Z,6.20
2018-03-06T11:16:03.002Z,6.10
2018-03-06T11:18:29.373Z,6.10
2018-03-06T11:20:55.690Z,6.20
2018-03-06T11:23:22.018Z,6.20
2018-03-06T11:25:48.318Z,6.20
2018-03-06T11:28:14.648Z,5.90
2018-03-06T11:30:40.966Z,5.90
2018-03-06T11:33:07.277Z,5.70
2018-03-06T11:35:34.353Z,5.70
2018-03-06T11:38:00.656Z,5.60
2018-03-06T11:40:27.706Z,5.60
2018-03-06T11:42:54.746Z,5.50
2018-03-06T11:45:21.791Z,5.30
2018-03-06T11:47:48.874Z,5.40
2018-03-06T11:50:16.190Z,5.30
2018-03-06T11:52:43.229Z,5.50
2018-03-06T11:55:10.295Z,5.80
2018-03-06T11:57:37.421Z,6.10
2018-03-06T12:00:03.760Z,6.10
2018-03-06T12:02:30.077Z,6.40
2018-03-06T12:04:57.378Z,6.40
2018-03-06T12:07:23.674Z,6.30
2018-03-06T12:10:15.855Z,6.40
2018-03-06T12:12:42.999Z,6.70
2018-03-06T12:15:09.323Z,6.70
2018-03-06T12:17:36.402Z,7.40
2018-03-06T12:20:03.546Z,7.70
2018-03-06T12:22:30.598Z,7.70
2018-03-06T12:24:57.662Z,8.00
2018-03-06T12:27:24.042Z,8.00
2018-03-06T12:29:50.357Z,8.00
2018-03-06T12:32:16.674Z,8.00
2018-03-06T12:34:42.998Z,8.10
2018-03-06T12:37:09.324Z,8.10
2018-03-06T12:39:35.634Z,8.30
2018-03-06T12:42:01.959Z,8.50
2018-03-06T12:44:28.279Z,8.60
2018-03-06T12:46:55.350Z,8.10
2018-03-06T12:52:57.942Z,8.10
2018-03-06T12:55:24.279Z,8.30
2018-03-06T12:57:50.597Z,8.30
2018-03-06T13:00:17.988Z,8.20
2018-03-06T13:02:45.055Z,7.80
2018-03-06T13:05:11.365Z,7.80
2018-03-06T13:07:38.434Z,7.60
2018-03-06T13:10:04.778Z,7.50
2018-03-06T13:12:31.117Z,7.80
2018-03-06T13:14:57.443Z,7.50
2018-03-06T13:17:23.758Z,7.40
2018-03-06T13:19:50.112Z,7.30
2018-03-06T13:22:16.427Z,7.30
2018-03-06T13:24:42.769Z,7.30
2018-03-06T13:27:09.094Z,7.40
2018-03-06T13:29:35.414Z,7.30
2018-03-06T13:32:01.720Z,7.30
2018-03-06T13:34:28.781Z,7.30
2018-03-06T13:36:55.852Z,7.30
2018-03-06T13:39:22.193Z,7.30
2018-03-06T13:41:48.536Z,7.30
2018-03-06T13:44:14.867Z,7.30
2018-03-06T13:46:42.250Z,7.50
2018-03-06T13:49:09.303Z,7.90
2018-03-06T13:51:35.610Z,7.90
2018-03-06T13:54:01.916Z,7.90
2018-03-06T13:56:28.226Z,7.90
2018-03-06T13:58:54.534Z,8.10
2018-03-06T14:01:21.610Z,8.20
2018-03-06T14:03:47.926Z,8.10
2018-03-06T14:06:16.107Z,8.30
2018-03-06T14:08:42.474Z,8.30
2018-03-06T14:11:08.782Z,8.20
2018-03-06T14:13:35.123Z,8.30
2018-03-06T14:16:01.442Z,8.40
2018-03-06T14:18:28.787Z,8.50
2018-03-06T14:20:55.102Z,8.60
2018-03-06T14:23:22.167Z,8.30
2018-03-06T14:25:48.492Z,8.30
2018-03-06T14:28:14.805Z,8.40
2018-03-06T14:30:41.867Z,8.30
2018-03-06T14:33:08.179Z,8.20
2018-03-06T14:35:35.247Z,9.00
2018-03-06T14:38:01.561Z,9.00
2018-03-06T14:40:29.619Z,8.90
2018-03-06T14:42:56.682Z,8.70
2018-03-06T14:45:23.739Z,8.60
2018-03-06T14:47:50.183Z,8.60
2018-03-06T14:50:16.518Z,8.50
2018-03-06T14:52:42.848Z,8.50
2018-03-06T14:55:09.175Z,8.60
2018-03-06T14:57:35.498Z,8.70
2018-03-06T15:00:02.597Z,8.20
2018-03-06T15:02:28.922Z,8.20
2018-03-06T15:04:55.246Z,8.10
2018-03-06T15:07:21.562Z,8.00
2018-03-06T15:09:47.866Z,7.90
2018-03-06T15:12:14.913Z,8.10
2018-03-06T15:14:41.979Z,7.90
2018-03-06T15:17:08.313Z,7.80
2018-03-06T15:19:34.626Z,7.90
2018-03-06T15:22:00.961Z,7.90
2018-03-06T15:24:27.291Z,7.90
2018-03-06T15:26:53.618Z,7.90
2018-03-06T15:29:20.666Z,8.00
2018-03-06T15:31:46.975Z,8.00
2018-03-06T15:34:13.311Z,8.00
2018-03-06T15:36:41.416Z,8.00
2018-03-06T15:39:07.731Z,8.00
2018-03-06T15:41:34.787Z,7.70
2018-03-06T15:44:01.106Z,7.80
2018-03-06T15:46:28.159Z,7.60
2018-03-06T15:48:54.631Z,7.60
2018-03-06T15:51:20.956Z,7.60
2018-03-06T15:53:47.286Z,7.60
2018-03-06T15:56:13.651Z,7.50
2018-03-06T15:58:39.974Z,7.60
2018-03-06T16:01:06.316Z,7.70
2018-03-06T16:03:32.643Z,7.70
2018-03-06T16:05:58.950Z,7.70
2018-03-06T16:08:25.266Z,7.70
2018-03-06T16:10:51.603Z,7.60
2018-03-06T16:13:17.941Z,7.30
2018-03-06T16:15:44.255Z,7.10
2018-03-06T16:18:10.593Z,7.10
2018-03-06T16:20:36.915Z,6.90
2018-03-06T16:23:03.221Z,6.90
2018-03-06T16:25:30.267Z,6.50
2018-03-06T16:27:57.317Z,6.50
2018-03-06T16:30:23.687Z,6.50
2018-03-06T16:32:50.002Z,6.50
2018-03-06T16:35:17.331Z,6.40
2018-03-06T16:37:43.653Z,6.40
2018-03-06T16:40:11.729Z,6.20
2018-03-06T16:42:38.783Z,6.20
2018-03-06T16:45:05.118Z,6.20
2018-03-06T16:47:31.454Z,6.20
2018-03-06T16:49:57.778Z,6.10
2018-03-06T16:52:24.110Z,6.20
2018-03-06T16:54:50.472Z,6.20
2018-03-06T16:57:16.782Z,6.20
2018-03-06T16:59:43.102Z,6.10
2018-03-06T17:02:09.543Z,6.20
2018-03-06T17:04:35.859Z,6.20
2018-03-06T17:07:03.539Z,6.10
2018-03-06T17:09:30.020Z,6.10
2018-03-06T17:11:56.451Z,6.10
2018-03-06T17:14:23.390Z,6.20
2018-03-06T17:16:50.015Z,6.30
2018-03-06T17:19:16.334Z,6.30
2018-03-06T17:21:42.654Z,6.30
2018-03-06T17:24:09.064Z,6.20
2018-03-06T17:26:36.122Z,5.90
2018-03-06T17:29:02.574Z,5.90
2018-03-06T17:31:28.896Z,5.80
2018-03-06T17:33:55.215Z,5.70
2018-03-06T17:36:22.259Z,5.50
2018-03-06T17:38:49.315Z,5.40
2018-03-06T17:41:15.631Z,5.30
2018-03-06T17:43:42.738Z,5.30
2018-03-06T17:46:09.678Z,5.30
2018-03-06T17:48:36.042Z,5.30
2018-03-06T17:51:02.651Z,5.40
2018-03-06T17:53:29.021Z,5.30
2018-03-06T17:55:56.091Z,5.50
2018-03-06T17:58:22.412Z,5.50
2018-03-06T18:00:49.466Z,5.40
2018-03-06T18:03:15.775Z,5.40
2018-03-06T18:05:42.826Z,5.30
2018-03-06T18:08:09.891Z,5.30
2018-03-06T18:10:36.202Z,5.30
2018-03-06T18:13:03.271Z,5.40
2018-03-06T18:15:30.343Z,5.40
2018-03-06T18:17:56.655Z,5.30
2018-03-06T18:20:22.976Z,5.30
2018-03-06T18:22:50.030Z,5.40
2018-03-06T18:25:16.375Z,5.40
2018-03-06T18:27:42.701Z,5.50
2018-03-06T18:30:09.022Z,5.60
2018-03-06T18:32:35.327Z,5.70
2018-03-06T18:35:02.406Z,5.90
2018-03-06T18:37:28.789Z,5.80
2018-03-06T18:39:55.102Z,6.00
2018-03-06T18:42:21.419Z,6.00
2018-03-06T18:44:47.731Z,6.00
2018-03-06T18:47:14.055Z,5.90
2018-03-06T18:49:52.865Z,6.00
2018-03-06T18:52:19.922Z,6.10
2018-03-06T18:54:46.971Z,6.00
2018-03-06T18:57:14.014Z,5.90
2018-03-06T18:59:43.457Z,5.80
2018-03-06T19:02:22.170Z,5.80
2018-03-06T19:05:00.869Z,5.80
2018-03-06T19:07:27.170Z,5.80
2018-03-06T19:09:53.491Z,6.00
2018-03-06T19:12:19.810Z,6.00
2018-03-06T19:14:46.131Z,5.90
2018-03-06T19:17:12.454Z,5.90
2018-03-06T19:19:38.773Z,6.00
2018-03-06T19:22:05.078Z,6.10
2018-03-06T19:24:32.123Z,6.10
2018-03-06T19:26:59.257Z,6.00
2018-03-06T19:29:26.523Z,6.10
2018-03-06T19:31:55.110Z,6.10
2018-03-06T19:34:21.426Z,6.10
2018-03-06T19:36:48.495Z,6.10
2018-03-06T19:39:14.803Z,6.00
2018-03-06T19:41:41.862Z,6.10
2018-03-06T19:44:08.910Z,6.20
2018-03-06T19:46:35.959Z,6.30
2018-03-06T19:49:03.033Z,6.30
2018-03-06T19:51:29.358Z,6.30
2018-03-06T19:53:55.696Z,6.30
2018-03-06T19:56:22.237Z,6.30
2018-03-06T19:58:48.547Z,6.30
2018-03-06T20:01:14.854Z,6.40
2018-03-06T20:03:41.161Z,6.30
2018-03-06T20:06:07.483Z,6.20
2018-03-06T20:08:33.795Z,6.20
2018-03-06T20:11:00.108Z,6.10
2018-03-06T20:13:26.890Z,6.10
2018-03-06T20:15:53.223Z,6.10
2018-03-06T20:18:19.526Z,6.00
2018-03-06T20:20:45.834Z,6.00
2018-03-06T20:23:13.206Z,5.80
2018-03-06T20:25:45.695Z,5.80
2018-03-06T20:28:12.036Z,5.80
2018-03-06T20:30:44.446Z,5.80
2018-03-06T20:33:17.233Z,5.80
2018-03-06T20:35:44.338Z,5.80
2018-03-06T20:38:16.808Z,5.80
2018-03-06T20:40:44.152Z,5.90
2018-03-06T20:43:10.479Z,5.80
2018-03-06T20:45:43.002Z,5.80
2018-03-06T20:48:09.366Z,5.90
2018-03-06T20:50:36.464Z,5.80
2018-03-06T20:53:09.071Z,5.80
2018-03-06T20:55:36.159Z,5.70
2018-03-06T20:58:02.506Z,5.80
2018-03-06T21:00:28.831Z,5.70
2018-03-06T21:02:55.184Z,5.70
2018-03-06T21:05:21.504Z,5.70
2018-03-06T21:07:48.864Z,5.60
2018-03-06T21:10:15.191Z,5.50
2018-03-06T21:12:41.880Z,5.50
2018-03-06T21:15:08.194Z,5.50
2018-03-06T21:17:35.591Z,5.60
2018-03-06T21:20:02.687Z,5.60
2018-03-06T21:22:29.008Z,5.60
2018-03-06T21:24:55.388Z,5.70
2018-03-06T21:27:21.667Z,5.60
2018-03-06T21:29:47.978Z,5.70
2018-03-06T21:32:15.031Z,5.70
2018-03-06T21:34:42.082Z,5.70
2018-03-06T21:37:09.150Z,5.70
2018-03-06T21:39:35.541Z,5.70
2018-03-06T21:42:01.840Z,5.80
2018-03-06T21:44:28.183Z,5.70
2018-03-06T21:46:54.496Z,5.60
2018-03-06T21:49:20.789Z,5.60
2018-03-06T21:51:47.850Z,5.50
2018-03-06T21:54:14.162Z,5.50
2018-03-06T21:56:41.266Z,5.50
2018-03-06T21:59:07.572Z,5.40
2018-03-06T22:01:33.883Z,5.40
2018-03-06T22:04:00.206Z,5.40
2018-03-06T22:06:27.250Z,5.50
2018-03-06T22:08:54.302Z,5.40
2018-03-06T22:11:22.394Z,5.40
2018-03-06T22:13:48.709Z,5.40
2018-03-06T22:16:15.761Z,5.30
2018-03-06T22:18:42.070Z,5.30
2018-03-06T22:21:08.376Z,5.20
2018-03-06T22:23:34.682Z,5.30
2018-03-06T22:26:01.024Z,5.20
2018-03-06T22:28:27.336Z,5.30
2018-03-06T22:30:53.655Z,5.30
2018-03-06T22:33:19.966Z,5.30
2018-03-06T22:35:50.735Z,5.20
2018-03-06T22:38:18.043Z,5.20
2018-03-06T22:40:45.348Z,5.20
2018-03-06T22:43:11.662Z,5.20
2018-03-06T22:45:37.975Z,5.20
2018-03-06T22:48:05.023Z,5.20
2018-03-06T22:50:32.093Z,5.10
2018-03-06T22:52:58.398Z,5.10
2018-03-06T22:55:25.477Z,5.10
2018-03-06T22:57:51.835Z,5.10
2018-03-06T23:00:18.159Z,5.10
2018-03-06T23:02:44.532Z,5.10
2018-03-06T23:05:11.846Z,5.10
2018-03-06T23:07:38.206Z,5.00
2018-03-06T23:10:04.588Z,5.00
2018-03-06T23:12:31.630Z,5.00
2018-03-06T23:14:58.671Z,5.00
2018-03-06T23:17:27.812Z,5.00
2018-03-06T23:19:54.266Z,5.00
2018-03-06T23:22:20.582Z,5.00
2018-03-06T23:24:47.643Z,5.00
2018-03-06T23:27:14.715Z,5.00
2018-03-06T23:29:41.039Z,5.00
2018-03-06T23:32:18.882Z,5.00
2018-03-06T23:34:46.002Z,5.00
2018-03-06T23:37:12.342Z,5.00
2018-03-06T23:39:39.679Z,5.00
2018-03-06T23:42:05.991Z,5.00
2018-03-06T23:44:32.307Z,5.00
2018-03-06T23:46:58.636Z,4.90
2018-03-06T23:49:25.002Z,4.90
2018-03-06T23:51:51.305Z,4.90
2018-03-06T23:54:17.614Z,4.90
2018-03-06T23:56:43.974Z,4.90
2018-03-06T23:59:10.298Z,4.80
